sensor_id;sensor_type;location;lat;lon;timestamp;pressure;altitude;pressure_sealevel;temperature;humidity
64679;BME280;51094;53.864;27.676;2023-04-04T00:00:24;99561.13;;;0.98;61.94
64679;BME280;51094;53.864;27.676;2023-04-04T00:02:51;99490.75;;;0.50;62.08
64679;BME280;51094;53.864;27.676;2023-04-04T00:05:18;99554.41;;;0.94;62.55
64679;BME280;51094;53.864;27.676;2023-04-04T00:07:45;99580.69;;;1.01;62.46
64679;BME280;51094;53.864;27.676;2023-04-04T00:10:13;99579.78;;;1.04;62.72
64679;BME280;51094;53.864;27.676;2023-04-04T00:12:41;99468.97;;;0.37;62.77
64679;BME280;51094;53.864;27.676;2023-04-04T00:15:08;99531.13;;;0.73;62.88
64679;BME280;51094;53.864;27.676;2023-04-04T00:17:35;99552.16;;;0.84;62.37
64679;BME280;51094;53.864;27.676;2023-04-04T00:20:02;99510.34;;;0.51;62.77
64679;BME280;51094;53.864;27.676;2023-04-04T00:22:30;99543.00;;;0.75;63.27
64679;BME280;51094;53.864;27.676;2023-04-04T00:24:57;99575.84;;;0.90;64.03
64679;BME280;51094;53.864;27.676;2023-04-04T00:27:24;99566.59;;;0.86;63.17
64679;BME280;51094;53.864;27.676;2023-04-04T00:29:51;99528.06;;;0.58;63.47
64679;BME280;51094;53.864;27.676;2023-04-04T00:32:18;99565.81;;;0.84;63.91
64679;BME280;51094;53.864;27.676;2023-04-04T00:34:45;99458.19;;;0.24;63.71
64679;BME280;51094;53.864;27.676;2023-04-04T00:37:12;99520.44;;;0.57;63.88
64679;BME280;51094;53.864;27.676;2023-04-04T00:39:39;99528.31;;;0.82;63.48
64679;BME280;51094;53.864;27.676;2023-04-04T00:42:06;99480.25;;;0.60;63.69
64679;BME280;51094;53.864;27.676;2023-04-04T00:44:34;99525.03;;;0.77;63.63
64679;BME280;51094;53.864;27.676;2023-04-04T00:47:03;99570.78;;;0.89;63.98
64679;BME280;51094;53.864;27.676;2023-04-04T00:49:30;99525.31;;;0.66;64.41
64679;BME280;51094;53.864;27.676;2023-04-04T00:51:57;99482.66;;;0.34;64.19
64679;BME280;51094;53.864;27.676;2023-04-04T00:54:24;99439.16;;;0.02;65.13
64679;BME280;51094;53.864;27.676;2023-04-04T00:56:51;99533.88;;;0.65;65.48
64679;BME280;51094;53.864;27.676;2023-04-04T00:59:22;99459.47;;;0.08;65.42
64679;BME280;51094;53.864;27.676;2023-04-04T01:01:49;99443.75;;;0.23;65.50
64679;BME280;51094;53.864;27.676;2023-04-04T01:04:16;99508.16;;;0.70;65.77
64679;BME280;51094;53.864;27.676;2023-04-04T01:06:44;99428.38;;;-0.10;65.80
64679;BME280;51094;53.864;27.676;2023-04-04T01:09:11;99465.06;;;0.54;65.86
64679;BME280;51094;53.864;27.676;2023-04-04T01:11:38;99496.03;;;0.76;65.97
64679;BME280;51094;53.864;27.676;2023-04-04T01:14:06;99377.88;;;0.00;65.80
64679;BME280;51094;53.864;27.676;2023-04-04T01:16:33;99518.97;;;0.81;66.18
64679;BME280;51094;53.864;27.676;2023-04-04T01:19:05;99509.69;;;0.77;66.34
64679;BME280;51094;53.864;27.676;2023-04-04T01:21:35;99429.25;;;0.22;66.55
64679;BME280;51094;53.864;27.676;2023-04-04T01:24:03;99367.94;;;-0.12;66.76
64679;BME280;51094;53.864;27.676;2023-04-04T01:26:41;99511.28;;;0.81;66.73
64679;BME280;51094;53.864;27.676;2023-04-04T01:29:07;99506.41;;;0.72;66.81
64679;BME280;51094;53.864;27.676;2023-04-04T01:31:39;99530.56;;;0.61;66.58
64679;BME280;51094;53.864;27.676;2023-04-04T01:34:31;99509.47;;;0.52;67.05
64679;BME280;51094;53.864;27.676;2023-04-04T01:37:10;99520.88;;;0.40;67.41
64679;BME280;51094;53.864;27.676;2023-04-04T01:40:05;99513.00;;;0.48;67.33
64679;BME280;51094;53.864;27.676;2023-04-04T01:42:35;99406.47;;;-0.20;67.81
64679;BME280;51094;53.864;27.676;2023-04-04T01:45:06;99483.88;;;0.19;67.24
64679;BME280;51094;53.864;27.676;2023-04-04T01:47:38;99498.16;;;0.28;67.53
64679;BME280;51094;53.864;27.676;2023-04-04T01:50:08;99421.66;;;-0.14;67.88
64679;BME280;51094;53.864;27.676;2023-04-04T01:52:36;99487.03;;;0.30;67.88
64679;BME280;51094;53.864;27.676;2023-04-04T01:55:04;99414.94;;;-0.18;68.05
64679;BME280;51094;53.864;27.676;2023-04-04T01:57:32;99354.53;;;-0.54;68.14
64679;BME280;51094;53.864;27.676;2023-04-04T01:59:59;99506.97;;;0.50;68.32
64679;BME280;51094;53.864;27.676;2023-04-04T02:02:26;99480.88;;;0.38;67.72
64679;BME280;51094;53.864;27.676;2023-04-04T02:04:52;99499.28;;;0.50;68.22
64679;BME280;51094;53.864;27.676;2023-04-04T02:07:19;99419.75;;;-0.06;68.14
64679;BME280;51094;53.864;27.676;2023-04-04T02:09:47;99499.41;;;0.46;68.45
64679;BME280;51094;53.864;27.676;2023-04-04T02:12:13;99479.13;;;0.40;67.66
64679;BME280;51094;53.864;27.676;2023-04-04T02:14:40;99494.19;;;0.49;68.46
64679;BME280;51094;53.864;27.676;2023-04-04T02:17:07;99491.31;;;0.30;68.42
64679;BME280;51094;53.864;27.676;2023-04-04T02:19:34;99491.72;;;0.46;68.23
64679;BME280;51094;53.864;27.676;2023-04-04T02:22:01;99401.00;;;-0.05;68.63
64679;BME280;51094;53.864;27.676;2023-04-04T02:24:28;99456.53;;;0.23;67.79
64679;BME280;51094;53.864;27.676;2023-04-04T02:26:54;99510.41;;;0.49;67.91
64679;BME280;51094;53.864;27.676;2023-04-04T02:29:21;99511.38;;;0.44;68.51
64679;BME280;51094;53.864;27.676;2023-04-04T02:31:49;99496.22;;;0.38;68.82
64679;BME280;51094;53.864;27.676;2023-04-04T02:34:16;99508.25;;;0.66;68.11
64679;BME280;51094;53.864;27.676;2023-04-04T02:36:43;99455.38;;;0.35;68.06
64679;BME280;51094;53.864;27.676;2023-04-04T02:39:11;99384.06;;;-0.09;68.12
64679;BME280;51094;53.864;27.676;2023-04-04T02:41:39;99390.97;;;-0.12;68.13
64679;BME280;51094;53.864;27.676;2023-04-04T02:47:34;99490.66;;;0.54;68.86
64679;BME280;51094;53.864;27.676;2023-04-04T02:50:01;99402.47;;;0.03;68.47
64679;BME280;51094;53.864;27.676;2023-04-04T02:52:28;99364.78;;;-0.22;68.71
64679;BME280;51094;53.864;27.676;2023-04-04T02:54:58;99503.22;;;0.63;68.23
64679;BME280;51094;53.864;27.676;2023-04-04T02:57:31;99424.34;;;0.14;68.81
64679;BME280;51094;53.864;27.676;2023-04-04T02:59:58;99405.59;;;0.14;68.54
64679;BME280;51094;53.864;27.676;2023-04-04T03:02:25;99509.38;;;0.87;68.18
64679;BME280;51094;53.864;27.676;2023-04-04T03:04:52;99482.41;;;0.76;68.06
64679;BME280;51094;53.864;27.676;2023-04-04T03:07:18;99407.72;;;0.30;67.58
64679;BME280;51094;53.864;27.676;2023-04-04T03:09:46;99487.06;;;0.61;67.81
64679;BME280;51094;53.864;27.676;2023-04-04T03:12:13;99498.81;;;0.69;67.75
64679;BME280;51094;53.864;27.676;2023-04-04T03:14:40;99475.44;;;0.48;68.01
64679;BME280;51094;53.864;27.676;2023-04-04T03:17:07;99406.03;;;-0.02;68.28
64679;BME280;51094;53.864;27.676;2023-04-04T03:19:36;99485.66;;;0.50;68.52
64679;BME280;51094;53.864;27.676;2023-04-04T03:22:03;99385.81;;;-0.11;68.73
64679;BME280;51094;53.864;27.676;2023-04-04T03:24:32;99481.91;;;0.63;68.93
64679;BME280;51094;53.864;27.676;2023-04-04T03:26:59;99457.53;;;0.48;68.98
64679;BME280;51094;53.864;27.676;2023-04-04T03:29:28;99393.50;;;0.20;68.58
64679;BME280;51094;53.864;27.676;2023-04-04T03:31:56;99466.47;;;0.66;69.22
64679;BME280;51094;53.864;27.676;2023-04-04T03:34:23;99403.47;;;0.31;69.05
64679;BME280;51094;53.864;27.676;2023-04-04T03:36:50;99528.69;;;0.99;68.69
64679;BME280;51094;53.864;27.676;2023-04-04T03:39:19;99461.47;;;0.61;68.89
64679;BME280;51094;53.864;27.676;2023-04-04T03:41:46;99499.38;;;0.80;69.20
64679;BME280;51094;53.864;27.676;2023-04-04T03:44:13;99516.81;;;0.96;69.00
64679;BME280;51094;53.864;27.676;2023-04-04T03:46:40;99488.19;;;0.82;69.11
64679;BME280;51094;53.864;27.676;2023-04-04T03:49:10;99520.16;;;0.98;69.65
64679;BME280;51094;53.864;27.676;2023-04-04T03:51:37;99473.94;;;0.74;68.87
64679;BME280;51094;53.864;27.676;2023-04-04T03:54:04;99533.25;;;0.88;69.43
64679;BME280;51094;53.864;27.676;2023-04-04T03:56:31;99523.56;;;0.99;69.49
64679;BME280;51094;53.864;27.676;2023-04-04T03:59:02;99531.25;;;0.99;69.68
64679;BME280;51094;53.864;27.676;2023-04-04T04:01:29;99451.66;;;0.45;69.46
64679;BME280;51094;53.864;27.676;2023-04-04T04:03:56;99451.47;;;0.52;69.84
64679;BME280;51094;53.864;27.676;2023-04-04T04:06:23;99528.66;;;1.00;70.21
64679;BME280;51094;53.864;27.676;2023-04-04T04:08:50;99461.34;;;0.66;70.13
64679;BME280;51094;53.864;27.676;2023-04-04T04:11:19;99507.34;;;0.98;69.93
64679;BME280;51094;53.864;27.676;2023-04-04T04:13:45;99554.88;;;1.09;69.88
64679;BME280;51094;53.864;27.676;2023-04-04T04:16:12;99464.25;;;0.52;70.15
64679;BME280;51094;53.864;27.676;2023-04-04T04:18:39;99461.53;;;0.58;70.14
64679;BME280;51094;53.864;27.676;2023-04-04T04:21:11;99361.75;;;-0.04;70.23
64679;BME280;51094;53.864;27.676;2023-04-04T04:23:40;99535.41;;;1.03;70.76
64679;BME280;51094;53.864;27.676;2023-04-04T04:26:07;99378.34;;;0.13;70.51
64679;BME280;51094;53.864;27.676;2023-04-04T04:28:34;99474.91;;;0.70;70.33
64679;BME280;51094;53.864;27.676;2023-04-04T04:31:07;99500.81;;;0.88;70.03
64679;BME280;51094;53.864;27.676;2023-04-04T04:33:40;99556.66;;;1.07;70.40
64679;BME280;51094;53.864;27.676;2023-04-04T04:36:08;99440.34;;;0.53;70.57
64679;BME280;51094;53.864;27.676;2023-04-04T04:38:45;99503.31;;;0.90;71.16
64679;BME280;51094;53.864;27.676;2023-04-04T04:41:14;99521.53;;;0.81;70.51
64679;BME280;51094;53.864;27.676;2023-04-04T04:43:44;99478.50;;;0.30;71.00
64679;BME280;51094;53.864;27.676;2023-04-04T04:46:11;99466.56;;;-0.04;71.37
64679;BME280;51094;53.864;27.676;2023-04-04T04:48:39;99510.44;;;0.14;71.74
64679;BME280;51094;53.864;27.676;2023-04-04T04:51:09;99506.97;;;0.16;72.22
64679;BME280;51094;53.864;27.676;2023-04-04T04:53:47;99506.75;;;0.25;72.60
64679;BME280;51094;53.864;27.676;2023-04-04T04:56:14;99502.41;;;0.29;72.71
64679;BME280;51094;53.864;27.676;2023-04-04T04:58:45;99479.50;;;0.24;72.60
64679;BME280;51094;53.864;27.676;2023-04-04T05:01:20;99498.00;;;0.66;72.70
64679;BME280;51094;53.864;27.676;2023-04-04T05:03:48;99369.22;;;0.04;71.49
64679;BME280;51094;53.864;27.676;2023-04-04T05:06:24;99309.09;;;-0.43;71.47
64679;BME280;51094;53.864;27.676;2023-04-04T05:08:51;99362.66;;;-0.05;71.62
64679;BME280;51094;53.864;27.676;2023-04-04T05:11:30;99499.75;;;0.95;71.82
64679;BME280;51094;53.864;27.676;2023-04-04T05:13:57;99491.03;;;1.03;71.12
64679;BME280;51094;53.864;27.676;2023-04-04T05:16:26;99442.22;;;0.79;71.25
64679;BME280;51094;53.864;27.676;2023-04-04T05:18:56;99507.81;;;1.13;71.16
64679;BME280;51094;53.864;27.676;2023-04-04T05:21:23;99350.16;;;0.16;70.88
64679;BME280;51094;53.864;27.676;2023-04-04T05:23:52;99454.59;;;0.63;70.60
64679;BME280;51094;53.864;27.676;2023-04-04T05:26:21;99515.97;;;0.96;71.26
64679;BME280;51094;53.864;27.676;2023-04-04T05:28:50;99471.41;;;0.72;70.92
64679;BME280;51094;53.864;27.676;2023-04-04T05:31:18;99425.81;;;0.55;70.92
64679;BME280;51094;53.864;27.676;2023-04-04T05:33:45;99525.41;;;1.25;70.68
64679;BME280;51094;53.864;27.676;2023-04-04T05:36:20;99377.72;;;0.37;70.14
64679;BME280;51094;53.864;27.676;2023-04-04T05:38:52;99501.31;;;1.01;70.54
64679;BME280;51094;53.864;27.676;2023-04-04T05:41:22;99466.38;;;0.69;69.84
64679;BME280;51094;53.864;27.676;2023-04-04T05:43:52;99509.13;;;0.65;70.23
64679;BME280;51094;53.864;27.676;2023-04-04T05:46:22;99402.06;;;-0.13;70.62
64679;BME280;51094;53.864;27.676;2023-04-04T05:48:51;99444.84;;;0.13;71.15
64679;BME280;51094;53.864;27.676;2023-04-04T05:51:19;99499.75;;;0.64;71.38
64679;BME280;51094;53.864;27.676;2023-04-04T05:53:59;99443.50;;;0.63;71.27
64679;BME280;51094;53.864;27.676;2023-04-04T05:56:31;99465.72;;;0.92;70.37
64679;BME280;51094;53.864;27.676;2023-04-04T05:58:59;99458.25;;;0.86;70.84
64679;BME280;51094;53.864;27.676;2023-04-04T06:01:30;99364.41;;;0.24;70.96
64679;BME280;51094;53.864;27.676;2023-04-04T06:04:00;99376.88;;;0.37;71.03
64679;BME280;51094;53.864;27.676;2023-04-04T06:06:28;99439.91;;;0.99;70.90
64679;BME280;51094;53.864;27.676;2023-04-04T06:08:55;99482.69;;;1.25;70.84
64679;BME280;51094;53.864;27.676;2023-04-04T06:11:22;99387.53;;;0.51;70.25
64679;BME280;51094;53.864;27.676;2023-04-04T06:13:50;99433.69;;;0.79;70.46
64679;BME280;51094;53.864;27.676;2023-04-04T06:16:20;99501.31;;;1.01;70.31
64679;BME280;51094;53.864;27.676;2023-04-04T06:18:47;99456.63;;;0.51;71.13
64679;BME280;51094;53.864;27.676;2023-04-04T06:21:14;99364.78;;;-0.22;71.42
64679;BME280;51094;53.864;27.676;2023-04-04T06:23:41;99460.66;;;0.28;71.12
64679;BME280;51094;53.864;27.676;2023-04-04T06:26:08;99504.13;;;0.61;71.99
64679;BME280;51094;53.864;27.676;2023-04-04T06:28:44;99501.16;;;0.76;71.80
64679;BME280;51094;53.864;27.676;2023-04-04T06:31:11;99357.97;;;0.10;72.12
64679;BME280;51094;53.864;27.676;2023-04-04T06:33:39;99507.53;;;1.23;71.95
64679;BME280;51094;53.864;27.676;2023-04-04T06:36:06;99436.50;;;0.99;71.14
64679;BME280;51094;53.864;27.676;2023-04-04T06:38:32;99464.16;;;1.17;71.33
64679;BME280;51094;53.864;27.676;2023-04-04T06:41:03;99506.84;;;1.46;70.87
64679;BME280;51094;53.864;27.676;2023-04-04T06:43:30;99480.28;;;1.49;70.94
64679;BME280;51094;53.864;27.676;2023-04-04T06:45:57;99467.19;;;1.30;70.56
64679;BME280;51094;53.864;27.676;2023-04-04T06:48:24;99431.78;;;1.15;70.49
64679;BME280;51094;53.864;27.676;2023-04-04T06:50:51;99441.28;;;1.11;70.44
64679;BME280;51094;53.864;27.676;2023-04-04T06:53:18;99501.22;;;1.33;70.58
64679;BME280;51094;53.864;27.676;2023-04-04T06:55:46;99493.81;;;1.24;71.19
64679;BME280;51094;53.864;27.676;2023-04-04T06:58:13;99403.03;;;0.77;71.22
64679;BME280;51094;53.864;27.676;2023-04-04T07:00:40;99484.81;;;1.11;70.84
64679;BME280;51094;53.864;27.676;2023-04-04T07:03:07;99437.47;;;1.24;71.32
64679;BME280;51094;53.864;27.676;2023-04-04T07:05:36;99539.56;;;1.94;70.96
64679;BME280;51094;53.864;27.676;2023-04-04T07:08:04;99502.53;;;2.27;70.89
64679;BME280;51094;53.864;27.676;2023-04-04T07:10:32;99485.47;;;2.26;69.44
64679;BME280;51094;53.864;27.676;2023-04-04T07:12:59;99493.72;;;2.36;67.72
64679;BME280;51094;53.864;27.676;2023-04-04T07:15:26;99500.16;;;2.48;68.33
64679;BME280;51094;53.864;27.676;2023-04-04T07:17:53;99503.31;;;2.56;67.52
64679;BME280;51094;53.864;27.676;2023-04-04T07:20:20;99494.38;;;2.66;68.11
64679;BME280;51094;53.864;27.676;2023-04-04T07:22:47;99490.63;;;2.99;68.27
64679;BME280;51094;53.864;27.676;2023-04-04T07:25:14;99358.72;;;2.55;67.65
64679;BME280;51094;53.864;27.676;2023-04-04T07:27:41;99479.38;;;3.91;67.79
64679;BME280;51094;53.864;27.676;2023-04-04T07:30:09;99469.44;;;4.04;64.75
64679;BME280;51094;53.864;27.676;2023-04-04T07:32:36;99474.38;;;4.30;65.67
64679;BME280;51094;53.864;27.676;2023-04-04T07:35:05;99424.91;;;4.42;62.12
64679;BME280;51094;53.864;27.676;2023-04-04T07:37:35;99450.59;;;4.64;61.08
64679;BME280;51094;53.864;27.676;2023-04-04T07:40:04;99463.94;;;4.92;62.53
64679;BME280;51094;53.864;27.676;2023-04-04T07:42:31;99466.81;;;5.05;61.07
64679;BME280;51094;53.864;27.676;2023-04-04T07:44:58;99466.78;;;5.24;60.67
64679;BME280;51094;53.864;27.676;2023-04-04T07:47:25;99452.16;;;5.24;58.63
64679;BME280;51094;53.864;27.676;2023-04-04T07:49:53;99474.44;;;5.25;59.92
64679;BME280;51094;53.864;27.676;2023-04-04T07:52:19;99485.06;;;5.19;60.11
64679;BME280;51094;53.864;27.676;2023-04-04T07:54:47;99471.53;;;5.14;58.60
64679;BME280;51094;53.864;27.676;2023-04-04T07:57:13;99495.91;;;5.07;59.53
64679;BME280;51094;53.864;27.676;2023-04-04T07:59:40;99492.25;;;5.13;60.30
64679;BME280;51094;53.864;27.676;2023-04-04T08:02:07;99439.22;;;5.07;59.13
64679;BME280;51094;53.864;27.676;2023-04-04T08:04:34;99386.06;;;4.67;58.27
64679;BME280;51094;53.864;27.676;2023-04-04T08:07:01;99507.19;;;5.23;58.27
64679;BME280;51094;53.864;27.676;2023-04-04T08:09:27;99284.53;;;3.76;57.69
64679;BME280;51094;53.864;27.676;2023-04-04T08:11:59;99450.53;;;4.45;57.65
64679;BME280;51094;53.864;27.676;2023-04-04T08:14:27;99508.22;;;4.61;57.75
64679;BME280;51094;53.864;27.676;2023-04-04T08:16:54;99516.28;;;4.54;59.60
64679;BME280;51094;53.864;27.676;2023-04-04T08:19:21;99450.41;;;4.08;58.84
64679;BME280;51094;53.864;27.676;2023-04-04T08:21:48;99515.94;;;4.41;59.68
64679;BME280;51094;53.864;27.676;2023-04-04T08:24:15;99477.25;;;4.43;59.74
64679;BME280;51094;53.864;27.676;2023-04-04T08:26:42;99520.59;;;4.74;59.31
64679;BME280;51094;53.864;27.676;2023-04-04T08:29:14;99318.00;;;3.33;59.03
64679;BME280;51094;53.864;27.676;2023-04-04T08:31:41;99431.50;;;4.09;59.76
64679;BME280;51094;53.864;27.676;2023-04-04T08:34:08;99469.34;;;4.27;57.65
64679;BME280;51094;53.864;27.676;2023-04-04T08:36:35;99495.66;;;4.13;58.55
64679;BME280;51094;53.864;27.676;2023-04-04T08:39:02;99411.25;;;3.59;59.45
64679;BME280;51094;53.864;27.676;2023-04-04T08:41:29;99454.06;;;4.02;59.30
64679;BME280;51094;53.864;27.676;2023-04-04T08:44:00;99467.84;;;4.01;59.40
64679;BME280;51094;53.864;27.676;2023-04-04T08:46:28;99390.06;;;3.52;59.26
64679;BME280;51094;53.864;27.676;2023-04-04T08:48:55;99455.84;;;3.80;59.45
64679;BME280;51094;53.864;27.676;2023-04-04T08:51:25;99506.25;;;4.06;59.54
64679;BME280;51094;53.864;27.676;2023-04-04T08:53:55;99498.56;;;3.84;60.14
64679;BME280;51094;53.864;27.676;2023-04-04T08:56:23;99385.38;;;2.98;59.91
64679;BME280;51094;53.864;27.676;2023-04-04T08:58:49;99452.00;;;3.24;60.53
64679;BME280;51094;53.864;27.676;2023-04-04T09:01:17;99480.00;;;3.32;61.11
64679;BME280;51094;53.864;27.676;2023-04-04T09:03:44;99504.16;;;3.50;61.24
64679;BME280;51094;53.864;27.676;2023-04-04T09:06:11;99467.09;;;3.33;61.84
64679;BME280;51094;53.864;27.676;2023-04-04T09:08:40;99528.00;;;3.77;61.21
64679;BME280;51094;53.864;27.676;2023-04-04T09:11:07;99446.66;;;3.30;60.69
64679;BME280;51094;53.864;27.676;2023-04-04T09:13:34;99336.84;;;2.45;60.75
64679;BME280;51094;53.864;27.676;2023-04-04T09:16:04;99473.03;;;3.12;61.02
64679;BME280;51094;53.864;27.676;2023-04-04T09:18:31;99460.28;;;3.09;61.10
64679;BME280;51094;53.864;27.676;2023-04-04T09:20:58;99522.63;;;3.38;61.30
64679;BME280;51094;53.864;27.676;2023-04-04T09:23:25;99522.75;;;3.34;61.66
64679;BME280;51094;53.864;27.676;2023-04-04T09:25:53;99515.81;;;3.37;61.81
64679;BME280;51094;53.864;27.676;2023-04-04T09:28:23;99512.28;;;3.39;61.90
64679;BME280;51094;53.864;27.676;2023-04-04T09:30:51;99476.69;;;3.05;61.10
64679;BME280;51094;53.864;27.676;2023-04-04T09:33:20;99449.50;;;2.76;61.87
64679;BME280;51094;53.864;27.676;2023-04-04T09:35:54;99488.22;;;2.95;62.29
64679;BME280;51094;53.864;27.676;2023-04-04T09:38:24;99516.47;;;3.42;62.48
64679;BME280;51094;53.864;27.676;2023-04-04T09:40:54;99513.09;;;3.85;63.13
64679;BME280;51094;53.864;27.676;2023-04-04T09:43:23;99480.50;;;3.85;61.11
64679;BME280;51094;53.864;27.676;2023-04-04T09:45:53;99373.75;;;2.88;60.50
64679;BME280;51094;53.864;27.676;2023-04-04T09:48:29;99442.22;;;3.34;61.29
64679;BME280;51094;53.864;27.676;2023-04-04T09:50:58;99464.69;;;3.51;61.06
64679;BME280;51094;53.864;27.676;2023-04-04T09:53:26;99438.13;;;3.50;62.03
64679;BME280;51094;53.864;27.676;2023-04-04T09:55:54;99475.72;;;3.96;60.32
64679;BME280;51094;53.864;27.676;2023-04-04T09:58:25;99482.19;;;4.07;60.85
64679;BME280;51094;53.864;27.676;2023-04-04T10:00:55;99505.88;;;4.35;60.91
64679;BME280;51094;53.864;27.676;2023-04-04T10:03:23;99440.75;;;4.13;59.31
64679;BME280;51094;53.864;27.676;2023-04-04T10:06:01;99507.50;;;4.17;59.28
64679;BME280;51094;53.864;27.676;2023-04-04T10:08:33;99467.81;;;3.81;60.20
64679;BME280;51094;53.864;27.676;2023-04-04T10:11:04;99510.41;;;3.88;60.62
64679;BME280;51094;53.864;27.676;2023-04-04T10:13:35;99511.81;;;3.95;60.56
64679;BME280;51094;53.864;27.676;2023-04-04T10:16:03;99486.47;;;3.86;60.39
64679;BME280;51094;53.864;27.676;2023-04-04T10:18:32;99498.41;;;4.09;60.47
64679;BME280;51094;53.864;27.676;2023-04-04T10:21:02;99454.06;;;3.82;59.45
64679;BME280;51094;53.864;27.676;2023-04-04T10:23:43;99515.81;;;4.02;59.36
64679;BME280;51094;53.864;27.676;2023-04-04T10:26:11;99446.13;;;3.44;59.81
64679;BME280;51094;53.864;27.676;2023-04-04T10:28:40;99511.41;;;4.06;60.65
64679;BME280;51094;53.864;27.676;2023-04-04T10:33:51;99507.38;;;3.98;59.68
64679;BME280;51094;53.864;27.676;2023-04-04T10:36:22;99509.88;;;4.22;61.04
64679;BME280;51094;53.864;27.676;2023-04-04T10:39:25;99513.22;;;4.44;59.64
64679;BME280;51094;53.864;27.676;2023-04-04T10:41:54;99511.25;;;4.30;59.62
64679;BME280;51094;53.864;27.676;2023-04-04T10:44:28;99436.50;;;3.91;60.47
64679;BME280;51094;53.864;27.676;2023-04-04T10:46:56;99507.31;;;4.42;59.92
64679;BME280;51094;53.864;27.676;2023-04-04T10:49:26;99528.91;;;4.60;59.83
64679;BME280;51094;53.864;27.676;2023-04-04T10:51:54;99502.56;;;4.74;58.87
64679;BME280;51094;53.864;27.676;2023-04-04T10:54:24;99517.75;;;5.19;59.21
64679;BME280;51094;53.864;27.676;2023-04-04T10:56:53;99447.56;;;4.93;57.97
64679;BME280;51094;53.864;27.676;2023-04-04T10:59:23;99528.31;;;5.31;58.76
64679;BME280;51094;53.864;27.676;2023-04-04T11:01:58;99454.66;;;4.88;57.35
64679;BME280;51094;53.864;27.676;2023-04-04T11:04:32;99497.56;;;4.89;57.31
64679;BME280;51094;53.864;27.676;2023-04-04T11:07:06;99507.47;;;4.78;57.59
64679;BME280;51094;53.864;27.676;2023-04-04T11:09:54;99498.56;;;4.66;58.95
64679;BME280;51094;53.864;27.676;2023-04-04T11:12:31;99416.97;;;4.28;57.84
64679;BME280;51094;53.864;27.676;2023-04-04T11:15:08;99508.75;;;4.70;57.33
64679;BME280;51094;53.864;27.676;2023-04-04T11:20:16;99515.22;;;4.38;58.04
64679;BME280;51094;53.864;27.676;2023-04-04T11:22:43;99513.34;;;4.21;58.55
64679;BME280;51094;53.864;27.676;2023-04-04T11:27:53;99515.41;;;4.13;59.22
64679;BME280;51094;53.864;27.676;2023-04-04T11:30:22;99411.56;;;3.29;59.42
64679;BME280;51094;53.864;27.676;2023-04-04T11:32:49;99472.41;;;3.51;59.91
64679;BME280;51094;53.864;27.676;2023-04-04T11:35:31;99464.19;;;3.43;59.82
64679;BME280;51094;53.864;27.676;2023-04-04T11:37:59;99489.94;;;3.63;60.53
64679;BME280;51094;53.864;27.676;2023-04-04T11:40:38;99511.38;;;3.85;60.31
64679;BME280;51094;53.864;27.676;2023-04-04T11:43:12;99527.63;;;3.86;60.58
64679;BME280;51094;53.864;27.676;2023-04-04T11:45:45;99488.03;;;3.68;60.53
64679;BME280;51094;53.864;27.676;2023-04-04T11:48:15;99522.72;;;3.80;60.34
64679;BME280;51094;53.864;27.676;2023-04-04T11:50:45;99520.75;;;3.64;59.79
64679;BME280;51094;53.864;27.676;2023-04-04T11:53:15;99543.38;;;3.55;60.92
64679;BME280;51094;53.864;27.676;2023-04-04T11:55:46;99519.47;;;3.53;61.44
64679;BME280;51094;53.864;27.676;2023-04-04T11:58:15;99536.34;;;3.60;61.42
64679;BME280;51094;53.864;27.676;2023-04-04T12:00:43;99470.16;;;3.20;60.75
64679;BME280;51094;53.864;27.676;2023-04-04T12:03:15;99515.66;;;3.63;60.56
64679;BME280;51094;53.864;27.676;2023-04-04T12:05:43;99492.50;;;3.41;61.08
64679;BME280;51094;53.864;27.676;2023-04-04T12:08:11;99471.22;;;3.14;60.47
64679;BME280;51094;53.864;27.676;2023-04-04T12:10:38;99521.63;;;3.42;60.55
64679;BME280;51094;53.864;27.676;2023-04-04T12:13:09;99467.69;;;2.95;61.35
64679;BME280;51094;53.864;27.676;2023-04-04T12:15:37;99517.38;;;3.41;61.96
64679;BME280;51094;53.864;27.676;2023-04-04T12:18:07;99523.97;;;3.24;61.30
64679;BME280;51094;53.864;27.676;2023-04-04T12:20:37;99519.38;;;2.86;61.88
64679;BME280;51094;53.864;27.676;2023-04-04T12:23:05;99449.94;;;2.41;62.67
64679;BME280;51094;53.864;27.676;2023-04-04T12:25:32;99415.91;;;2.11;63.17
64679;BME280;51094;53.864;27.676;2023-04-04T12:28:01;99439.13;;;2.06;63.65
64679;BME280;51094;53.864;27.676;2023-04-04T12:30:30;99522.31;;;2.75;63.49
64679;BME280;51094;53.864;27.676;2023-04-04T12:32:57;99459.34;;;2.40;63.26
64679;BME280;51094;53.864;27.676;2023-04-04T12:35:24;99490.47;;;2.56;63.47
64679;BME280;51094;53.864;27.676;2023-04-04T12:40:30;99467.06;;;2.40;63.65
64679;BME280;51094;53.864;27.676;2023-04-04T12:42:59;99441.53;;;2.36;64.11
64679;BME280;51094;53.864;27.676;2023-04-04T12:45:26;99438.56;;;2.48;63.99
64679;BME280;51094;53.864;27.676;2023-04-04T12:47:54;99531.91;;;2.95;63.83
64679;BME280;51094;53.864;27.676;2023-04-04T12:50:22;99526.28;;;2.84;63.25
64679;BME280;51094;53.864;27.676;2023-04-04T12:52:51;99477.84;;;2.50;63.66
64679;BME280;51094;53.864;27.676;2023-04-04T12:55:29;99423.16;;;2.23;64.32
64679;BME280;51094;53.864;27.676;2023-04-04T12:57:59;99484.00;;;2.69;63.86
64679;BME280;51094;53.864;27.676;2023-04-04T13:00:26;99499.66;;;2.86;63.74
64679;BME280;51094;53.864;27.676;2023-04-04T13:02:54;99484.84;;;2.70;63.57
64679;BME280;51094;53.864;27.676;2023-04-04T13:05:23;99519.84;;;2.72;63.91
64679;BME280;51094;53.864;27.676;2023-04-04T13:08:03;99529.69;;;2.84;63.99
64679;BME280;51094;53.864;27.676;2023-04-04T13:10:30;99540.22;;;2.77;63.70
64679;BME280;51094;53.864;27.676;2023-04-04T13:12:59;99530.66;;;2.57;64.35
64679;BME280;51094;53.864;27.676;2023-04-04T13:15:51;99540.94;;;2.30;64.55
64679;BME280;51094;53.864;27.676;2023-04-04T13:18:20;99537.56;;;2.28;65.19
64679;BME280;51094;53.864;27.676;2023-04-04T13:20:48;99522.16;;;2.04;65.26
64679;BME280;51094;53.864;27.676;2023-04-04T13:23:15;99537.72;;;2.24;65.68